Norris Observed Data For Previous 48 Hours

Caption
Day and Hour Reservoir Elevation (behind dam)* Tailwater Elevation (below dam)* Average Hourly Discharge*
10/11/2019 2 AM EDT 1,005.25 821.64 20
10/11/2019 3 AM EDT 1,005.25 821.51 20
10/11/2019 4 AM EDT 1,005.22 823.48 363
10/11/2019 5 AM EDT 1,005.28 823.65 3,177
10/11/2019 6 AM EDT 1,005.24 822.11 20
10/11/2019 7 AM EDT 1,005.23 821.77 20
10/11/2019 8 AM EDT 1,005.23 821.61 20
10/11/2019 9 AM EDT 1,005.24 821.49 20
10/11/2019 10 AM EDT 1,005.22 821.37 20
10/11/2019 11 AM EDT 1,005.23 821.25 20
10/11/2019 12 PM EDT 1,005.19 823.40 363
10/11/2019 1 PM EDT 1,005.21 824.63 3,461
10/11/2019 2 PM EDT 1,005.21 824.78 3,425
10/11/2019 3 PM EDT 1,005.17 826.25 3,841
10/11/2019 4 PM EDT 1,005.17 826.88 6,797
10/11/2019 5 PM EDT 1,005.18 826.90 6,787
10/11/2019 6 PM EDT 1,005.14 826.93 6,780
10/11/2019 7 PM EDT 1,005.13 826.92 6,778
10/11/2019 8 PM EDT 1,005.11 826.91 6,783
10/11/2019 9 PM EDT 1,005.11 824.84 3,511
10/11/2019 10 PM EDT 1,005.11 822.24 124
10/11/2019 11 PM EDT 1,005.10 821.81 20
10/12/2019 12 AM EDT 1,005.11 821.64 20
10/12/2019 1 AM EDT 1,005.11 821.51 20
10/12/2019 2 AM EDT 1,005.09 823.52 366
10/12/2019 3 AM EDT 1,005.13 823.65 3,170
10/12/2019 4 AM EDT 1,005.11 822.11 20
10/12/2019 5 AM EDT 1,005.10 821.76 20
10/12/2019 6 AM EDT 1,005.09 821.60 20
10/12/2019 7 AM EDT 1,005.10 821.47 20
10/12/2019 8 AM EDT 1,005.08 821.35 20
10/12/2019 9 AM EDT 1,005.10 821.22 20
10/12/2019 10 AM EDT 1,005.08 823.44 369
10/12/2019 11 AM EDT 1,005.07 824.67 3,439
10/12/2019 12 PM EDT 1,005.07 824.80 3,431
10/12/2019 1 PM EDT 1,005.04 826.23 3,843
10/12/2019 2 PM EDT 1,005.06 826.90 6,791
10/12/2019 3 PM EDT 1,005.05 826.94 6,766
10/12/2019 4 PM EDT 1,005.01 826.96 6,805
10/12/2019 5 PM EDT 1,005.03 824.80 3,528
10/12/2019 6 PM EDT 1,005.00 824.76 3,383
10/12/2019 7 PM EDT 1,004.96 824.72 3,381
10/12/2019 8 PM EDT 1,004.96 824.69 3,376
10/12/2019 9 PM EDT 1,004.97 824.72 3,371
10/12/2019 10 PM EDT 1,004.97 824.73 3,376
10/12/2019 11 PM EDT 1,004.99 822.23 127
10/13/2019 12 AM EDT 1,004.97 821.81 20
10/13/2019 1 AM EDT 1,004.96 821.64 20
10/13/2019 2 AM EDT 1,004.99 821.52 20
10/13/2019 3 AM EDT 1,004.95 823.48 365
10/13/2019 4 AM EDT 1,005.00 823.68 3,179
10/13/2019 5 AM EDT 1,004.98 822.12 20
10/13/2019 6 AM EDT 1,004.97 821.78 20
10/13/2019 7 AM EDT 1,004.97 821.62 20
10/13/2019 8 AM EDT 1,004.97 821.49 20
10/13/2019 9 AM EDT 1,004.95 821.37 20
10/13/2019 10 AM EDT 1,004.97 821.26 20
10/13/2019 11 AM EDT 1,004.98 821.14 20
10/13/2019 12 PM EDT 1,004.98 821.03 20
10/13/2019 1 PM EDT 1,004.99 820.93 20
10/13/2019 2 PM EDT 1,004.97 820.84 20
10/13/2019 3 PM EDT 1,004.95 823.35 372
10/13/2019 4 PM EDT 1,004.96 824.55 3,447
10/13/2019 5 PM EDT 1,004.95 824.82 3,438
10/13/2019 6 PM EDT 1,004.91 826.25 3,844

Elevations are in feet above sea level. Discharges are in cubic feet per second and are reported at the end of the hour.